^^
Station Historical Data
Daily Summary for May 20, 2017 Units:  Metric    English   Both
« Previous Day
Next Day »
Daily Weekly Monthly Yearly Custom
  High: Low: Average:
Temperature: 28.9 °C 13.6 °C 19.9 °C
Dew Point: -1.9 °C -4.1 °C -3.2 °C
Humidity: 30% 13% 21%
Wind Speed: 11.1km/h 0km/h 2.1km/h
Wind Gust: 14.5km/h - -
Wind- - NNW
Pressure: 1022.2 hPa 1018.2 hPa -
Precipitation: 0 mm    
Historical Graphs
 
 
Tabular Data for May 20, 2017
Time Temperature Dew Point Pressure Wind Wind Speed Wind Gust Humidity Rainfall Rate (Hourly) solar Conditions
00:04 20.1 °C -2.9 °C 1019.5 hPa NNW 6.4 km/h 9.7 km/h 21% 0 mm 0.0 W/m2
00:19 19.8 °C -2.5 °C 1019.5 hPa NNW 1.4 km/h 8 km/h 22% 0 mm 0.0 W/m2
00:24 19.8 °C -2.5 °C 1019.5 hPa Calm   9.7 km/h 22% 0 mm 0.0 W/m2
00:29 19.9 °C -2.5 °C 1019.5 hPa NNW 1.4 km/h 8 km/h 22% 0 mm 0.0 W/m2
00:34 20.1 °C -2.9 °C 1019.5 hPa Calm   11.3 km/h 21% 0 mm 0.0 W/m2
00:39 20.3 °C -2.7 °C 1019.5 hPa NNW 3.2 km/h 14.5 km/h 21% 0 mm 0.0 W/m2
00:44 20.6 °C -2.5 °C 1019.5 hPa NNW 6.4 km/h 11.3 km/h 21% 0 mm 0.0 W/m2
00:49 20.4 °C -2.7 °C 1019.5 hPa Calm   8 km/h 21% 0 mm 0.0 W/m2
00:59 20.1 °C -2.9 °C 1019.5 hPa NNW 7.9 km/h 11.3 km/h 21% 0 mm 0.0 W/m2
01:05 20.2 °C -2.8 °C 1019.5 hPa Calm   12.9 km/h 21% 0 mm 0.0 W/m2
01:15 20.2 °C -2.8 °C 1019.5 hPa NNW 11.1 km/h 14.5 km/h 21% 0 mm 0.0 W/m2
01:20 20.2 °C -2.8 °C 1019.5 hPa NNW 7.9 km/h 11.3 km/h 21% 0 mm 0.0 W/m2
01:25 20 °C -3 °C 1019.5 hPa NNW 7.9 km/h 11.3 km/h 21% 0 mm 0.0 W/m2
01:30 19.7 °C -3.2 °C 1019.5 hPa NNW 6.4 km/h 11.3 km/h 21% 0 mm 0.0 W/m2
01:35 19.7 °C -3.2 °C 1019.5 hPa NNW 7.9 km/h 11.3 km/h 21% 0 mm 0.0 W/m2
01:45 19.8 °C -3.2 °C 1019.5 hPa NNW 9.7 km/h 11.3 km/h 21% 0 mm 0.0 W/m2
01:50 19.7 °C -3.2 °C 1019.2 hPa NNW 1.4 km/h 11.3 km/h 21% 0 mm 0.0 W/m2
02:00 19.3 °C -3.6 °C 1019.5 hPa Calm   9.7 km/h 21% 0 mm 0.0 W/m2
02:10 19.3 °C -3.6 °C 1019.5 hPa NNW 7.9 km/h 8 km/h 21% 0 mm 0.0 W/m2
02:15 19.4 °C -3.5 °C 1019.2 hPa NNW 6.4 km/h 9.7 km/h 21% 0 mm 0.0 W/m2
02:20 19.4 °C -3.5 °C 1019.5 hPa NNW 6.4 km/h 9.7 km/h 21% 0 mm 0.0 W/m2
02:25 19.4 °C -3.5 °C 1019.5 hPa NNW 6.4 km/h 9.7 km/h 21% 0 mm 0.0 W/m2
02:30 19.6 °C -3.3 °C 1019.5 hPa NNW 1.4 km/h 11.3 km/h 21% 0 mm 0.0 W/m2
02:35 19.6 °C -3.3 °C 1019.5 hPa NNW 6.4 km/h 9.7 km/h 21% 0 mm 0.0 W/m2
02:40 19.7 °C -3.2 °C 1019.5 hPa NNW 1.4 km/h 11.3 km/h 21% 0 mm 0.0 W/m2
02:45 19.6 °C -3.3 °C 1019.5 hPa NNW 7.9 km/h 11.3 km/h 21% 0 mm 0.0 W/m2
02:50 19.6 °C -3.3 °C 1019.5 hPa NNW 9.7 km/h 11.3 km/h 21% 0 mm 0.0 W/m2
03:00 19.5 °C -3.4 °C 1019.5 hPa NNW 7.9 km/h 12.9 km/h 21% 0 mm 0.0 W/m2
03:05 19.4 °C -3.5 °C 1019.5 hPa NNW 6.4 km/h 11.3 km/h 21% 0 mm 0.0 W/m2
03:15 19.1 °C -3.7 °C 1019.5 hPa NNW 9.7 km/h 11.3 km/h 21% 0 mm 0.0 W/m2
03:20 18.9 °C -3.9 °C 1019.5 hPa NNW 11.1 km/h 11.3 km/h 21% 0 mm 0.0 W/m2
03:25 18.9 °C -3.3 °C 1019.5 hPa NNW 11.1 km/h 11.3 km/h 22% 0 mm 0.0 W/m2
03:30 18.9 °C -3.9 °C 1019.5 hPa NNW 6.4 km/h 14.5 km/h 21% 0 mm 0.0 W/m2
03:35 18.9 °C -3.9 °C 1019.5 hPa NNW 7.9 km/h 11.3 km/h 21% 0 mm 0.0 W/m2
03:40 18.9 °C -3.9 °C 1019.5 hPa Calm   9.7 km/h 21% 0 mm 0.0 W/m2
03:45 18.7 °C -4.1 °C 1019.5 hPa Calm   9.7 km/h 21% 0 mm 0.0 W/m2
03:50 18.3 °C -3.8 °C 1019.5 hPa NNW 1.4 km/h 9.7 km/h 22% 0 mm 0.0 W/m2
03:55 18.3 °C -3.8 °C 1019.9 hPa NNW 6.4 km/h 9.7 km/h 22% 0 mm 0.0 W/m2
04:06 18.8 °C -4 °C 1019.9 hPa Calm     21% 0 mm 0.0 W/m2
04:11 18.7 °C -4.1 °C 1019.9 hPa Calm   3.2 km/h 21% 0 mm 0.0 W/m2
04:16 18.7 °C -4.1 °C 1019.9 hPa Calm     21% 0 mm 0.0 W/m2
04:21 18.4 °C -3.7 °C 1019.9 hPa Calm     22% 0 mm 0.0 W/m2
04:26 18.1 °C -4 °C 1020.2 hPa Calm     22% 0 mm 0.0 W/m2
04:32 17.7 °C -3.7 °C 1019.9 hPa Calm     23% 0 mm 0.0 W/m2
04:37 17.3 °C -4 °C 1020.2 hPa Calm     23% 0 mm 0.0 W/m2
04:42 16.8 °C -3.9 °C 1020.2 hPa Calm   6.4 km/h 24% 0 mm 0.0 W/m2
04:47 16.6 °C -4.1 °C 1020.2 hPa Calm     24% 0 mm 0.0 W/m2
05:02 16.1 °C -3.4 °C 1020.5 hPa Calm     26% 0 mm 0.0 W/m2
05:19 15.4 °C -4 °C 1020.5 hPa Calm     26% 0 mm 0.0 W/m2
05:24 15.2 °C -3.7 °C 1020.5 hPa NNW 1.4 km/h 9.7 km/h 27% 0 mm 0.0 W/m2
05:29 15.2 °C -3.7 °C 1020.5 hPa NNW 6.4 km/h 6.4 km/h 27% 0 mm 0.0 W/m2
05:39 15 °C -3.9 °C 1020.5 hPa Calm   8 km/h 27% 0 mm 0.0 W/m2
05:48 14.7 °C -3.6 °C 1020.5 hPa NNW 3.2 km/h 8 km/h 28% 0 mm 0.0 W/m2
05:55 14.6 °C -3.7 °C 1020.9 hPa Calm   8 km/h 28% 0 mm 0.0 W/m2
05:59 14.4 °C -3.9 °C 1020.9 hPa Calm     28% 0 mm 0.0 W/m2
06:14 14.3 °C -3.5 °C 1020.9 hPa Calm     29% 0 mm 0.0 W/m2
06:30 14.1 °C -3.7 °C 1021.2 hPa Calm     29% 0 mm 0.0 W/m2
06:46 13.9 °C -3.9 °C 1021.2 hPa Calm     29% 0 mm 11.0 W/m2
07:01 13.6 °C -4.1 °C 1021.2 hPa Calm     29% 0 mm 18.0 W/m2
07:11 13.8 °C -3.5 °C 1021.6 hPa Calm     30% 0 mm 28.0 W/m2
07:27 15.1 °C -2.8 °C 1021.6 hPa Calm     29% 0 mm 139.0 W/m2
07:43 16.6 °C -3 °C 1021.6 hPa Calm     26% 0 mm 183.0 W/m2
07:53 18.2 °C -2.7 °C 1021.9 hPa Calm   1.6 km/h 24% 0 mm 239.0 W/m2
08:23 20.1 °C -2.9 °C 1022.2 hPa Calm     21% 0 mm 330.0 W/m2
08:34 20.9 °C -2.9 °C 1022.2 hPa Calm     20% 0 mm 359.0 W/m2
09:04 22 °C -2.7 °C 1022.2 hPa Calm     19% 0 mm 436.0 W/m2
09:25 22.3 °C -2.4 °C 1022.2 hPa NNW 6.4 km/h 9.7 km/h 19% 0 mm 469.0 W/m2
09:35 22.7 °C -2.8 °C 1022.2 hPa Calm     18% 0 mm 503.0 W/m2
09:56 23.3 °C -2.4 °C 1021.9 hPa Calm   6.4 km/h 18% 0 mm 533.0 W/m2
10:11 24.2 °C -2.4 °C 1021.9 hPa Calm     17% 0 mm 559.0 W/m2
10:26 24.4 °C -3.1 °C 1021.6 hPa Calm     16% 0 mm 582.0 W/m2
10:36 24.7 °C -2.8 °C 1021.6 hPa NNW 1.4 km/h 9.7 km/h 16% 0 mm 594.0 W/m2
10:43 24.9 °C -2.7 °C 1021.2 hPa Calm   9.7 km/h 16% 0 mm 606.0 W/m2
14:30 28.9 °C -2.3 °C 1018.5 hPa NNW 7.9 km/h 12.9 km/h 13% 0 mm 427.0 W/m2
14:36 28.8 °C -2.4 °C 1018.5 hPa Calm     13% 0 mm 413.0 W/m2
14:39 28.9 °C -2.3 °C 1018.5 hPa NNW 9.7 km/h 14.5 km/h 13% 0 mm 401.0 W/m2
14:53 28.8 °C -2.4 °C 1018.2 hPa NNW 9.7 km/h 11.3 km/h 13% 0 mm 373.0 W/m2
15:03 28.9 °C -2.3 °C 1018.2 hPa NNW 6.4 km/h 11.3 km/h 13% 0 mm 348.0 W/m2
15:10 28.8 °C -2.4 °C 1018.2 hPa NNW 1.4 km/h 3.2 km/h 13% 0 mm 316.0 W/m2
16:16 28.6 °C -2.5 °C 1018.2 hPa Calm     13% 0 mm 90.0 W/m2
16:21 28.4 °C -2.7 °C 1018.5 hPa Calm     13% 0 mm 76.0 W/m2
16:26 28.3 °C -2.8 °C 1018.5 hPa Calm     13% 0 mm 62.0 W/m2
16:31 28.2 °C -2.8 °C 1018.2 hPa Calm     13% 0 mm 46.0 W/m2
16:36 28.1 °C -2.9 °C 1018.5 hPa Calm     13% 0 mm 35.0 W/m2
16:47 28.1 °C -1.9 °C 1018.5 hPa Calm     14% 0 mm 23.0 W/m2
17:02 27.3 °C -2.5 °C 1018.5 hPa Calm     14% 0 mm 9.0 W/m2
17:17 26.3 °C -2.4 °C 1018.5 hPa Calm     15% 0 mm 0.0 W/m2
17:33 25.4 °C -3.1 °C 1018.5 hPa Calm     15% 0 mm 0.0 W/m2
17:47 23.8 °C -2.7 °C 1018.8 hPa Calm     17% 0 mm 0.0 W/m2
17:58 22.9 °C -3.5 °C 1018.8 hPa Calm     17% 0 mm 0.0 W/m2
18:09 22.1 °C -3.3 °C 1018.8 hPa Calm     18% 0 mm 0.0 W/m2
18:20 21.3 °C -4 °C 1018.8 hPa Calm     18% 0 mm 0.0 W/m2
18:30 20.8 °C -3.7 °C 1018.8 hPa Calm     19% 0 mm 0.0 W/m2
19:31 19.3 °C -3.6 °C 1019.5 hPa Calm     21% 0 mm 0.0 W/m2
19:41 18.9 °C -3.9 °C 1019.5 hPa Calm     21% 0 mm 0.0 W/m2
19:47 19.1 °C -3.1 °C 1019.5 hPa Calm     22% 0 mm 0.0 W/m2
19:53 19.2 °C -3 °C 1019.5 hPa Calm     22% 0 mm 0.0 W/m2
20:02 19.5 °C -2.8 °C 1019.5 hPa Calm     22% 0 mm 0.0 W/m2
20:07 19.6 °C -2.7 °C 1019.5 hPa Calm     22% 0 mm 0.0 W/m2
20:13 19.8 °C -3.2 °C 1019.5 hPa Calm     21% 0 mm 0.0 W/m2
20:23 20 °C -3 °C 1019.5 hPa Calm     21% 0 mm 0.0 W/m2
20:28 20.1 °C -2.9 °C 1019.5 hPa Calm     21% 0 mm 0.0 W/m2
20:33 19.9 °C -3.1 °C 1019.5 hPa Calm     21% 0 mm 0.0 W/m2
20:39 19.7 °C -2.6 °C 1019.5 hPa Calm     22% 0 mm 0.0 W/m2
20:48 19.7 °C -2.6 °C 1019.5 hPa Calm     22% 0 mm 0.0 W/m2
20:54 19.8 °C -3.2 °C 1019.5 hPa Calm     21% 0 mm 0.0 W/m2
20:59 19.8 °C -3.2 °C 1019.5 hPa Calm     21% 0 mm 0.0 W/m2
21:04 19.6 °C -2.7 °C 1019.5 hPa Calm     22% 0 mm 0.0 W/m2
21:09 19.4 °C -2.9 °C 1019.5 hPa Calm     22% 0 mm 0.0 W/m2
21:19 18.6 °C -3.5 °C 1019.5 hPa Calm     22% 0 mm 0.0 W/m2
21:24 18.3 °C -3.2 °C 1019.5 hPa Calm     23% 0 mm 0.0 W/m2
21:30 18.2 °C -3.3 °C 1019.5 hPa Calm     23% 0 mm 0.0 W/m2
21:35 17.9 °C -3.5 °C 1019.5 hPa Calm     23% 0 mm 0.0 W/m2
21:40 17.8 °C -3 °C 1019.5 hPa Calm     24% 0 mm 0.0 W/m2
21:45 17.8 °C -3 °C 1019.5 hPa Calm     24% 0 mm 0.0 W/m2
21:50 17.7 °C -3.7 °C 1019.5 hPa Calm     23% 0 mm 0.0 W/m2
22:00 17.3 °C -3.5 °C 1019.5 hPa Calm     24% 0 mm 0.0 W/m2
22:05 17.3 °C -3.5 °C 1019.5 hPa Calm     24% 0 mm 0.0 W/m2
22:10 17.2 °C -3.6 °C 1019.5 hPa Calm     24% 0 mm 0.0 W/m2
22:21 16.9 °C -3.8 °C 1019.5 hPa Calm     24% 0 mm 0.0 W/m2
22:31 16.4 °C -3.7 °C 1019.5 hPa Calm     25% 0 mm 0.0 W/m2
22:36 16.3 °C -3.8 °C 1019.5 hPa Calm     25% 0 mm 0.0 W/m2
22:41 16.2 °C -3.3 °C 1019.5 hPa Calm     26% 0 mm 0.0 W/m2
22:47 16.3 °C -3.2 °C 1019.5 hPa Calm     26% 0 mm 0.0 W/m2
22:57 18.9 °C -2.7 °C 1019.5 hPa NNW 6.4 km/h 12.9 km/h 23% 0 mm 0.0 W/m2
23:07 19.1 °C -2.5 °C 1019.5 hPa Calm   1.6 km/h 23% 0 mm 0.0 W/m2
23:12 19.1 °C -2.5 °C 1019.5 hPa Calm   6.4 km/h 23% 0 mm 0.0 W/m2
23:22 18.9 °C -2.7 °C 1019.5 hPa Calm   6.4 km/h 23% 0 mm 0.0 W/m2
23:27 19.2 °C -3 °C 1019.2 hPa Calm   3.2 km/h 22% 0 mm 0.0 W/m2
23:37 19.3 °C -3 °C 1019.2 hPa NNW 6.4 km/h 6.4 km/h 22% 0 mm 0.0 W/m2
Canyon Roadhouse, Fishriver Canyon, Namibia
Compliments of Weather Underground - 2.25 mb